createdAt,value
2023-10-10T00:01:07.087Z,3.60
2023-10-10T00:03:37.929Z,5.55
2023-10-10T00:06:09.569Z,6.22
2023-10-10T00:08:41.792Z,3.93
2023-10-10T00:11:16.075Z,5.22
2023-10-10T00:13:44.601Z,3.45
2023-10-10T00:16:13.750Z,3.42
2023-10-10T00:18:47.036Z,6.15
2023-10-10T00:21:24.155Z,4.43
2023-10-10T00:23:52.594Z,5.50
2023-10-10T00:26:23.309Z,4.10
2023-10-10T00:28:58.814Z,10.13
2023-10-10T00:31:28.488Z,3.90
2023-10-10T00:33:56.538Z,5.93
2023-10-10T00:36:32.494Z,3.00
2023-10-10T00:39:19.394Z,7.30
2023-10-10T00:41:52.455Z,3.67
2023-10-10T00:44:20.733Z,10.35
2023-10-10T00:46:56.711Z,8.90
2023-10-10T00:49:26.803Z,4.87
2023-10-10T00:51:57.229Z,3.95
2023-10-10T00:54:27.201Z,6.43
2023-10-10T00:56:56.191Z,3.90
2023-10-10T00:59:30.647Z,4.30
2023-10-10T01:01:57.982Z,4.07
2023-10-10T01:04:39.151Z,4.07
2023-10-10T01:07:11.454Z,4.22
2023-10-10T01:09:41.613Z,5.47
2023-10-10T01:12:11.214Z,4.70
2023-10-10T01:14:39.845Z,4.50
2023-10-10T01:17:13.455Z,7.65
2023-10-10T01:19:40.537Z,3.53
2023-10-10T01:22:23.594Z,5.57
2023-10-10T01:24:54.685Z,4.80
2023-10-10T01:27:23.546Z,4.93
2023-10-10T01:30:11.410Z,5.75
2023-10-10T01:32:40.856Z,4.95
2023-10-10T01:35:17.607Z,5.25
2023-10-10T01:37:55.835Z,6.53
2023-10-10T01:40:25.426Z,9.68
2023-10-10T01:42:55.387Z,3.30
2023-10-10T01:45:24.978Z,5.32
2023-10-10T01:48:09.404Z,3.25
2023-10-10T01:50:36.583Z,5.47
2023-10-10T01:53:11.909Z,3.62
2023-10-10T01:55:38.903Z,4.80
2023-10-10T01:58:12.696Z,4.30
2023-10-10T02:00:40.793Z,3.87
2023-10-10T02:03:08.103Z,5.43
2023-10-10T02:05:38.324Z,6.53
2023-10-10T02:08:26.879Z,5.65
2023-10-10T02:10:56.035Z,3.70
2023-10-10T02:13:23.664Z,7.35
2023-10-10T02:15:50.876Z,3.97
2023-10-10T02:18:38.015Z,7.12
2023-10-10T02:21:17.630Z,4.37
2023-10-10T02:23:46.329Z,4.72
2023-10-10T02:26:25.410Z,5.05
2023-10-10T02:29:12.807Z,3.67
2023-10-10T02:31:43.470Z,6.87
2023-10-10T02:34:11.886Z,7.90
2023-10-10T02:36:42.357Z,6.55
2023-10-10T02:39:18.107Z,6.12
2023-10-10T02:41:53.118Z,5.13
2023-10-10T02:44:35.526Z,5.70
2023-10-10T02:47:03.596Z,7.28
2023-10-10T02:49:30.787Z,4.18
2023-10-10T02:51:58.478Z,5.70
2023-10-10T02:54:32.935Z,7.40
2023-10-10T02:57:25.449Z,4.40
2023-10-10T03:00:00.416Z,4.87
2023-10-10T03:02:42.205Z,4.22
2023-10-10T03:05:16.483Z,6.25
2023-10-10T03:07:53.139Z,4.63
2023-10-10T03:10:24.079Z,4.87
2023-10-10T03:12:53.764Z,4.97
2023-10-10T03:15:21.203Z,3.92
2023-10-10T03:17:52.206Z,7.00
2023-10-10T03:20:25.952Z,6.37
2023-10-10T03:23:08.741Z,4.57
2023-10-10T03:25:53.163Z,9.20
2023-10-10T03:28:21.214Z,7.25
2023-10-10T03:31:17.388Z,5.78
2023-10-10T03:33:44.793Z,7.47
2023-10-10T03:36:20.152Z,7.70
2023-10-10T03:38:49.349Z,8.70
2023-10-10T03:41:36.074Z,9.50
2023-10-10T03:44:21.841Z,7.50
2023-10-10T03:47:01.447Z,7.10
2023-10-10T03:50:02.291Z,6.28
2023-10-10T03:52:48.199Z,7.80
2023-10-10T03:55:33.602Z,9.38
2023-10-10T03:58:19.210Z,8.32
2023-10-10T04:01:04.550Z,10.40
2023-10-10T04:03:50.650Z,7.87
2023-10-10T04:06:36.489Z,8.77
2023-10-10T04:09:22.055Z,7.18
2023-10-10T04:12:07.756Z,7.35
2023-10-10T04:14:53.366Z,4.73
2023-10-10T04:17:38.874Z,6.62
2023-10-10T04:20:25.184Z,7.05
2023-10-10T04:23:11.181Z,7.37
2023-10-10T04:25:57.200Z,9.25
2023-10-10T04:28:43.142Z,6.97
2023-10-10T04:31:28.668Z,8.40
2023-10-10T04:34:14.638Z,9.18
2023-10-10T04:37:00.703Z,6.10
2023-10-10T04:39:46.310Z,6.70
2023-10-10T04:42:32.210Z,6.97
2023-10-10T04:45:17.869Z,5.68
2023-10-10T04:48:03.844Z,9.25
2023-10-10T04:50:49.806Z,6.43
2023-10-10T04:53:35.612Z,6.43
2023-10-10T04:56:21.404Z,9.80
2023-10-10T04:59:07.104Z,6.20
2023-10-10T05:01:52.995Z,4.47
2023-10-10T05:04:38.764Z,5.07
2023-10-10T05:07:24.542Z,4.30
2023-10-10T05:10:10.356Z,6.63
2023-10-10T05:12:55.586Z,8.05
2023-10-10T05:15:41.348Z,5.80
2023-10-10T05:18:27.290Z,7.57
2023-10-10T05:21:14.471Z,6.00
2023-10-10T05:23:49.124Z,9.77
2023-10-10T05:26:21.066Z,4.35
2023-10-10T05:28:49.707Z,5.15
2023-10-10T05:31:22.438Z,5.15
2023-10-10T05:33:50.074Z,5.07
2023-10-10T05:36:19.822Z,9.37
2023-10-10T05:38:49.534Z,5.87
2023-10-10T05:41:20.357Z,3.60
2023-10-10T05:43:51.333Z,6.28
2023-10-10T05:46:18.759Z,7.82
2023-10-10T05:48:47.824Z,5.43
2023-10-10T05:51:15.046Z,4.05
2023-10-10T05:53:42.415Z,4.65
2023-10-10T05:56:17.204Z,4.47
2023-10-10T05:58:45.884Z,4.72
2023-10-10T06:01:15.187Z,7.13
2023-10-10T06:03:43.841Z,4.43
2023-10-10T06:06:13.819Z,4.47
2023-10-10T06:08:44.520Z,4.82
2023-10-10T06:11:15.905Z,5.60
2023-10-10T06:13:45.705Z,6.90
2023-10-10T06:16:16.320Z,6.30
2023-10-10T06:18:46.598Z,11.20
2023-10-10T06:21:16.156Z,5.55
2023-10-10T06:23:45.968Z,5.25
2023-10-10T06:26:14.318Z,5.70
2023-10-10T06:28:49.184Z,7.87
2023-10-10T06:31:33.423Z,4.62
2023-10-10T06:34:00.950Z,6.78
2023-10-10T06:36:34.017Z,4.95
2023-10-10T06:39:21.432Z,8.47
2023-10-10T06:41:52.053Z,62.95
2023-10-10T06:44:41.278Z,11.40
2023-10-10T06:47:13.282Z,11.82
2023-10-10T06:50:01.111Z,7.22
2023-10-10T06:52:30.573Z,7.30
2023-10-10T06:54:57.960Z,7.03
2023-10-10T06:57:45.574Z,5.62
2023-10-10T07:00:17.999Z,7.30
2023-10-10T07:02:49.845Z,7.82
2023-10-10T07:05:20.280Z,8.10
2023-10-10T07:07:53.598Z,6.53
2023-10-10T07:10:34.972Z,4.85
2023-10-10T07:13:03.008Z,8.48
2023-10-10T07:15:37.875Z,5.62
2023-10-10T07:18:23.553Z,8.90
2023-10-10T07:21:30.094Z,6.00
2023-10-10T07:24:16.326Z,6.70
2023-10-10T07:26:44.885Z,6.40
2023-10-10T07:29:48.649Z,9.77
2023-10-10T07:32:18.822Z,6.80
2023-10-10T07:34:52.963Z,8.75
2023-10-10T07:37:20.409Z,6.82
2023-10-10T07:40:10.543Z,10.75
2023-10-10T07:42:38.793Z,5.95
2023-10-10T07:45:15.517Z,6.87
2023-10-10T07:48:15.600Z,5.90
2023-10-10T07:50:49.101Z,8.57
2023-10-10T07:53:18.521Z,9.32
2023-10-10T07:56:00.341Z,7.45
2023-10-10T07:58:53.496Z,14.50
2023-10-10T08:01:22.101Z,9.70
2023-10-10T08:03:49.716Z,8.32
2023-10-10T08:06:20.305Z,13.27
2023-10-10T08:08:50.482Z,7.07
2023-10-10T08:11:27.206Z,21.30
2023-10-10T08:13:54.161Z,10.20
2023-10-10T08:16:22.790Z,8.63
2023-10-10T08:18:49.993Z,12.88
2023-10-10T08:21:17.906Z,8.30
2023-10-10T08:23:47.544Z,11.60
2023-10-10T08:26:26.136Z,13.30
2023-10-10T08:28:54.346Z,7.20
2023-10-10T08:31:24.078Z,6.82
2023-10-10T08:33:51.565Z,8.68
2023-10-10T08:36:24.920Z,7.50
2023-10-10T08:38:59.829Z,6.50
2023-10-10T08:41:30.091Z,5.15
2023-10-10T08:44:02.772Z,5.30
2023-10-10T08:46:32.117Z,6.65
2023-10-10T08:49:00.693Z,7.37
2023-10-10T08:51:35.346Z,6.30
2023-10-10T08:54:11.264Z,6.85
2023-10-10T08:56:44.275Z,7.03
2023-10-10T08:59:12.436Z,6.78
2023-10-10T09:01:41.025Z,6.27
2023-10-10T09:04:13.997Z,14.13
2023-10-10T09:06:59.521Z,6.05
2023-10-10T09:09:39.252Z,9.32
2023-10-10T09:12:15.683Z,6.22
2023-10-10T09:14:45.211Z,9.87
2023-10-10T09:17:37.501Z,7.60
2023-10-10T09:20:19.129Z,6.57
2023-10-10T09:22:53.102Z,11.40
2023-10-10T09:25:21.406Z,8.68
2023-10-10T09:28:00.370Z,8.37
2023-10-10T09:30:35.924Z,6.57
2023-10-10T09:33:36.884Z,6.78
2023-10-10T09:36:11.113Z,6.35
2023-10-10T09:38:46.817Z,9.50
2023-10-10T09:41:27.731Z,7.30
2023-10-10T09:44:24.475Z,10.35
2023-10-10T09:47:37.246Z,5.72
2023-10-10T09:50:22.030Z,6.75
2023-10-10T09:52:59.631Z,11.95
2023-10-10T09:55:32.739Z,8.73
2023-10-10T09:58:07.079Z,8.38
2023-10-10T10:00:38.564Z,7.40
2023-10-10T10:03:29.257Z,8.82
2023-10-10T10:06:03.873Z,9.35
2023-10-10T10:08:43.755Z,9.37
2023-10-10T10:11:27.454Z,7.72
2023-10-10T10:14:22.118Z,8.40
2023-10-10T10:17:01.098Z,9.63
2023-10-10T10:19:29.875Z,7.93
2023-10-10T10:22:10.087Z,7.10
2023-10-10T10:24:46.572Z,8.45
2023-10-10T10:27:35.720Z,12.35
2023-10-10T10:30:20.537Z,9.40
2023-10-10T10:32:49.654Z,11.52
2023-10-10T10:35:25.459Z,6.80
2023-10-10T10:37:57.879Z,10.07
2023-10-10T10:40:42.458Z,8.13
2023-10-10T10:43:16.597Z,11.70
2023-10-10T10:45:52.779Z,9.65
2023-10-10T10:48:37.128Z,8.40
2023-10-10T10:51:24.073Z,10.45
2023-10-10T10:54:00.773Z,9.45
2023-10-10T10:56:31.311Z,9.93
2023-10-10T10:59:20.896Z,11.77
2023-10-10T11:01:58.838Z,10.67
2023-10-10T11:04:33.212Z,13.90
2023-10-10T11:07:16.857Z,14.57
2023-10-10T11:10:07.600Z,8.32
2023-10-10T11:12:38.162Z,10.10
2023-10-10T11:15:12.679Z,9.47
2023-10-10T11:17:40.938Z,12.90
2023-10-10T11:20:31.210Z,10.55
2023-10-10T11:23:12.668Z,8.57
2023-10-10T11:25:46.789Z,10.45
2023-10-10T11:28:23.154Z,11.23
2023-10-10T11:30:51.911Z,11.20
2023-10-10T11:33:32.816Z,10.73
2023-10-10T11:36:23.606Z,13.85
2023-10-10T11:38:57.153Z,12.48
2023-10-10T11:41:30.790Z,13.53
2023-10-10T11:44:04.383Z,10.75
2023-10-10T11:46:32.229Z,13.45
2023-10-10T11:49:01.281Z,13.75
2023-10-10T11:51:35.656Z,11.40
2023-10-10T11:54:03.406Z,11.93
2023-10-10T11:56:35.958Z,16.25
2023-10-10T11:59:15.465Z,12.02
2023-10-10T12:01:52.897Z,11.93
2023-10-10T12:04:39.390Z,15.50
2023-10-10T12:07:07.612Z,14.53
2023-10-10T12:09:35.327Z,11.70
2023-10-10T12:12:05.261Z,17.15
2023-10-10T12:14:33.491Z,15.00
2023-10-10T12:17:06.477Z,12.73
2023-10-10T12:19:38.113Z,11.57
2023-10-10T12:22:10.131Z,13.62
2023-10-10T12:24:43.299Z,10.65
2023-10-10T12:27:14.875Z,16.02
2023-10-10T12:29:42.461Z,12.88
2023-10-10T12:32:16.960Z,16.03
2023-10-10T12:34:47.332Z,24.50
2023-10-10T12:37:16.865Z,19.73
2023-10-10T12:39:45.099Z,15.50
2023-10-10T12:42:12.758Z,14.20
2023-10-10T12:44:39.758Z,14.87
2023-10-10T12:47:09.599Z,21.73
2023-10-10T12:49:45.906Z,16.15
2023-10-10T12:52:13.749Z,14.05
2023-10-10T12:54:43.296Z,17.20
2023-10-10T12:57:15.402Z,20.80
2023-10-10T12:59:47.932Z,16.90
2023-10-10T13:02:17.096Z,18.75
2023-10-10T13:04:48.404Z,15.23
2023-10-10T13:07:17.621Z,17.12
2023-10-10T13:09:47.818Z,18.83
2023-10-10T13:12:19.861Z,16.48
2023-10-10T13:14:52.110Z,22.48
2023-10-10T13:17:31.794Z,18.00
2023-10-10T13:20:00.424Z,14.73
2023-10-10T13:22:30.603Z,20.50
2023-10-10T13:24:58.004Z,15.15
2023-10-10T13:27:26.704Z,63.00
2023-10-10T13:29:54.198Z,18.23
2023-10-10T13:32:21.728Z,17.73
2023-10-10T13:34:49.327Z,30.10
2023-10-10T13:37:16.433Z,19.30
2023-10-10T13:39:49.652Z,23.42
2023-10-10T13:42:18.948Z,45.47
2023-10-10T13:44:46.655Z,19.77
2023-10-10T13:47:14.633Z,14.33
2023-10-10T13:50:01.932Z,17.02
2023-10-10T13:52:28.858Z,16.87
2023-10-10T13:54:55.919Z,22.35
2023-10-10T13:57:22.793Z,22.98
2023-10-10T13:59:50.713Z,26.03
2023-10-10T14:02:18.363Z,20.60
2023-10-10T14:04:50.046Z,21.67
2023-10-10T14:07:17.527Z,19.33
2023-10-10T14:10:02.278Z,17.85
2023-10-10T14:12:33.890Z,18.17
2023-10-10T14:15:02.937Z,19.48
2023-10-10T14:17:31.395Z,25.00
2023-10-10T14:20:00.634Z,42.22
2023-10-10T14:22:32.206Z,23.12
2023-10-10T14:25:05.073Z,18.80
2023-10-10T14:27:32.893Z,14.52
2023-10-10T14:30:04.802Z,17.37
2023-10-10T14:32:38.741Z,18.30
2023-10-10T14:35:07.582Z,17.80
2023-10-10T14:37:49.858Z,15.83
2023-10-10T14:40:24.237Z,19.12
2023-10-10T14:42:53.531Z,21.15
2023-10-10T14:45:25.799Z,19.15
2023-10-10T14:47:53.206Z,17.40
2023-10-10T14:50:24.635Z,18.37
2023-10-10T14:52:52.692Z,15.88
2023-10-10T14:55:26.907Z,16.65
2023-10-10T14:57:56.486Z,15.63
2023-10-10T15:00:28.547Z,21.37
2023-10-10T15:02:56.735Z,18.73
2023-10-10T15:05:27.852Z,15.70
2023-10-10T15:07:55.714Z,19.55
2023-10-10T15:10:27.725Z,17.63
2023-10-10T15:12:56.037Z,20.50
2023-10-10T15:15:24.576Z,19.87
2023-10-10T15:17:52.727Z,18.37
2023-10-10T15:20:20.181Z,19.73
2023-10-10T15:22:47.779Z,23.90
2023-10-10T15:25:16.568Z,20.42
2023-10-10T15:27:43.990Z,19.60
2023-10-10T15:30:11.923Z,24.60
2023-10-10T15:32:48.384Z,20.60
2023-10-10T15:35:18.463Z,20.67
2023-10-10T15:37:46.006Z,19.75
2023-10-10T15:40:22.384Z,19.87
2023-10-10T15:42:51.935Z,18.42
2023-10-10T15:45:22.311Z,19.95
2023-10-10T15:47:50.720Z,19.50
2023-10-10T15:50:18.078Z,18.27
2023-10-10T15:52:52.453Z,19.67
2023-10-10T15:55:34.324Z,18.33
2023-10-10T15:58:01.562Z,25.92
2023-10-10T16:00:35.015Z,21.77
2023-10-10T16:03:08.559Z,20.12
2023-10-10T16:05:42.904Z,19.40
2023-10-10T16:08:10.414Z,23.38
2023-10-10T16:10:41.706Z,22.17
2023-10-10T16:13:09.939Z,29.58
2023-10-10T16:15:38.252Z,18.77
2023-10-10T16:18:06.822Z,22.60
2023-10-10T16:20:37.103Z,17.83
2023-10-10T16:23:09.645Z,24.33
2023-10-10T16:25:38.656Z,26.17
2023-10-10T16:28:07.210Z,29.70
2023-10-10T16:30:40.227Z,25.53
2023-10-10T16:33:10.106Z,25.90
2023-10-10T16:35:41.558Z,26.98
2023-10-10T16:38:08.836Z,23.48
2023-10-10T16:40:35.869Z,23.67
2023-10-10T16:43:03.455Z,33.37
2023-10-10T16:45:33.934Z,31.85
2023-10-10T16:48:02.890Z,31.25
2023-10-10T16:50:29.999Z,25.90
2023-10-10T16:53:09.975Z,29.70
2023-10-10T16:55:42.623Z,30.10
2023-10-10T16:58:16.192Z,28.25
2023-10-10T17:00:49.141Z,28.23
2023-10-10T17:03:18.275Z,32.53
2023-10-10T17:05:52.723Z,57.78
2023-10-10T17:08:20.785Z,53.13
2023-10-10T17:10:50.684Z,53.60
2023-10-10T17:13:18.232Z,52.00
2023-10-10T17:15:48.452Z,56.25
2023-10-10T17:18:16.484Z,50.40
2023-10-10T17:20:44.045Z,55.00
2023-10-10T17:23:14.457Z,55.50
2023-10-10T17:25:42.722Z,55.60
2023-10-10T17:28:12.019Z,67.97
2023-10-10T17:30:41.688Z,64.30
2023-10-10T17:33:11.072Z,41.57
2023-10-10T17:35:42.941Z,38.30
2023-10-10T17:38:12.656Z,34.28
2023-10-10T17:40:42.830Z,37.72
2023-10-10T17:43:11.843Z,38.72
2023-10-10T17:45:43.945Z,36.10
2023-10-10T17:48:16.405Z,35.25
2023-10-10T17:50:46.931Z,27.83
2023-10-10T17:53:16.005Z,33.28
2023-10-10T17:55:43.829Z,29.50
2023-10-10T17:58:11.650Z,28.50
2023-10-10T18:00:38.621Z,34.88
2023-10-10T18:03:06.739Z,35.53
2023-10-10T18:05:44.515Z,32.67
2023-10-10T18:08:13.240Z,30.60
2023-10-10T18:10:40.173Z,32.37
2023-10-10T18:13:14.333Z,36.85
2023-10-10T18:15:42.351Z,31.37
2023-10-10T18:18:09.860Z,35.10
2023-10-10T18:20:43.884Z,32.10
2023-10-10T18:23:11.410Z,37.80
2023-10-10T18:25:41.732Z,30.37
2023-10-10T18:28:09.788Z,37.47
2023-10-10T18:30:38.493Z,40.33
2023-10-10T18:33:09.612Z,37.53
2023-10-10T18:35:36.874Z,42.17
2023-10-10T18:38:05.962Z,45.17
2023-10-10T18:40:32.961Z,42.00
2023-10-10T18:43:00.227Z,37.70
2023-10-10T18:45:30.363Z,40.50
2023-10-10T18:47:57.911Z,39.60
2023-10-10T18:50:25.005Z,43.40
2023-10-10T18:52:54.495Z,45.20
2023-10-10T18:55:26.574Z,47.08
2023-10-10T18:58:01.352Z,69.45
2023-10-10T19:00:34.076Z,74.57
2023-10-10T19:03:01.173Z,69.15
2023-10-10T19:05:29.279Z,64.95
2023-10-10T19:07:58.542Z,59.08
2023-10-10T19:10:29.387Z,62.95
2023-10-10T19:12:57.413Z,54.30
2023-10-10T19:15:27.379Z,61.78
2023-10-10T19:17:59.815Z,56.08
2023-10-10T19:20:34.000Z,56.67
2023-10-10T19:23:05.698Z,57.85
2023-10-10T19:25:33.561Z,49.17
2023-10-10T19:28:00.856Z,46.72
2023-10-10T19:30:34.565Z,49.95
2023-10-10T19:33:02.412Z,49.17
2023-10-10T19:35:29.845Z,47.15
2023-10-10T19:37:57.267Z,44.63
2023-10-10T19:40:29.374Z,44.70
2023-10-10T19:42:58.669Z,50.28
2023-10-10T19:45:30.418Z,47.75
2023-10-10T19:48:04.054Z,53.75
2023-10-10T19:50:37.811Z,44.30
2023-10-10T19:53:05.362Z,49.05
2023-10-10T19:55:32.645Z,46.50
2023-10-10T19:57:59.816Z,49.10
2023-10-10T20:00:27.702Z,46.17
2023-10-10T20:02:57.759Z,41.70
2023-10-10T20:05:25.299Z,42.03
2023-10-10T20:07:53.177Z,54.20
2023-10-10T20:10:21.740Z,46.40
2023-10-10T20:12:53.881Z,52.28
2023-10-10T20:15:27.972Z,46.77
2023-10-10T20:17:59.652Z,46.28
2023-10-10T20:20:28.142Z,49.50
2023-10-10T20:22:58.235Z,44.25
2023-10-10T20:25:25.266Z,44.72
2023-10-10T20:27:52.451Z,51.00
2023-10-10T20:30:21.684Z,46.40
2023-10-10T20:32:52.985Z,48.60
2023-10-10T20:35:27.736Z,46.88
2023-10-10T20:37:57.333Z,48.83
2023-10-10T20:40:30.658Z,48.43
2023-10-10T20:43:01.743Z,48.47
2023-10-10T20:45:32.544Z,46.17
2023-10-10T20:47:59.904Z,43.28
2023-10-10T20:50:32.588Z,40.22
2023-10-10T20:53:01.534Z,39.60
2023-10-10T20:55:30.013Z,42.10
2023-10-10T20:57:58.685Z,45.83
2023-10-10T21:00:30.118Z,53.97
2023-10-10T21:03:07.199Z,42.05
2023-10-10T21:05:36.096Z,40.40
2023-10-10T21:08:04.932Z,40.90
2023-10-10T21:10:32.103Z,52.85
2023-10-10T21:12:59.517Z,47.97
2023-10-10T21:15:27.756Z,45.90
2023-10-10T21:18:00.099Z,41.00
2023-10-10T21:20:39.752Z,45.85
2023-10-10T21:23:12.655Z,46.30
2023-10-10T21:25:42.458Z,47.58
2023-10-10T21:28:09.886Z,46.53
2023-10-10T21:30:40.323Z,49.13
2023-10-10T21:33:08.111Z,48.03
2023-10-10T21:35:35.654Z,52.20
2023-10-10T21:38:03.609Z,41.50
2023-10-10T21:40:33.994Z,44.80
2023-10-10T21:43:01.233Z,45.37
2023-10-10T21:45:33.422Z,43.92
2023-10-10T21:48:04.808Z,44.42
2023-10-10T21:50:32.607Z,47.72
2023-10-10T21:53:01.919Z,40.72
2023-10-10T21:55:29.305Z,41.23
2023-10-10T21:57:57.335Z,40.33
2023-10-10T22:00:45.753Z,44.25
2023-10-10T22:03:15.241Z,40.30
2023-10-10T22:05:46.589Z,37.80
2023-10-10T22:08:14.008Z,42.97
2023-10-10T22:10:43.243Z,39.00
2023-10-10T22:13:12.495Z,33.38
2023-10-10T22:15:39.988Z,30.65
2023-10-10T22:18:07.429Z,38.78
2023-10-10T22:20:35.468Z,30.77
2023-10-10T22:23:05.588Z,35.88
2023-10-10T22:25:35.429Z,32.47
2023-10-10T22:28:05.047Z,30.67
2023-10-10T22:30:38.768Z,30.73
2023-10-10T22:33:12.214Z,31.53
2023-10-10T22:35:40.406Z,31.80
2023-10-10T22:38:07.875Z,31.10
2023-10-10T22:40:35.212Z,30.10
2023-10-10T22:43:04.241Z,32.58
2023-10-10T22:45:36.416Z,31.27
2023-10-10T22:48:05.409Z,32.20
2023-10-10T22:50:33.393Z,30.75
2023-10-10T22:53:02.897Z,32.53
2023-10-10T22:55:34.870Z,30.52
2023-10-10T22:58:07.950Z,30.97
2023-10-10T23:00:39.838Z,27.77
2023-10-10T23:03:12.323Z,28.48
2023-10-10T23:05:41.023Z,26.12
2023-10-10T23:08:08.853Z,30.12
2023-10-10T23:10:37.907Z,26.00
2023-10-10T23:13:05.102Z,22.33
2023-10-10T23:15:32.224Z,26.12
2023-10-10T23:18:01.509Z,27.13
2023-10-10T23:20:30.562Z,25.65
2023-10-10T23:23:00.085Z,21.13
2023-10-10T23:25:27.595Z,21.30
2023-10-10T23:27:57.308Z,23.08
2023-10-10T23:30:28.868Z,25.58
2023-10-10T23:32:58.230Z,22.83
2023-10-10T23:35:25.862Z,22.10
2023-10-10T23:38:06.559Z,25.45
2023-10-10T23:40:42.303Z,27.77
2023-10-10T23:43:17.515Z,23.75
2023-10-10T23:45:44.852Z,26.92
2023-10-10T23:48:17.078Z,22.47
2023-10-10T23:50:45.184Z,23.75
2023-10-10T23:53:15.521Z,24.63
2023-10-10T23:55:46.746Z,23.87
2023-10-10T23:58:14.103Z,25.48
